Time;durP1;ratioP1;P1;durP2;ratioP2;P2;SDS_P1;SDS_P2;PMS_P1;PMS_P2;Temp;Humidity;BMP_temperature;BMP_pressure;BME280_temperature;BME280_humidity;BME280_pressure;Samples;Min_cycle;Max_cycle;Signal;HPM_P1;HPM_P2
2023/12/28 00:00:53;;;;;;;17.63;12.53;;;4.00;78.30;;;;;;6277268;28;20907;-79
2023/12/28 00:03:56;;;;;;;12.77;9.93;;;4.10;78.00;;;;;;6284794;28;20382;-79
2023/12/28 00:06:59;;;;;;;9.10;8.20;;;4.10;78.00;;;;;;6271162;28;20317;-79
2023/12/28 00:10:03;;;;;;;9.57;8.47;;;4.30;77.80;;;;;;6275941;28;20306;-80
2023/12/28 00:13:07;;;;;;;10.97;7.83;;;4.40;77.40;;;;;;6270497;28;20368;-79
2023/12/28 00:16:10;;;;;;;11.57;9.03;;;4.40;77.30;;;;;;6269060;28;20245;-79
2023/12/28 00:19:14;;;;;;;8.37;7.73;;;4.30;77.30;;;;;;6280986;28;20233;-79
2023/12/28 00:22:18;;;;;;;12.97;8.03;;;4.30;77.30;;;;;;6290376;28;20237;-81
2023/12/28 00:25:21;;;;;;;9.07;8.17;;;4.40;77.20;;;;;;6284984;28;20405;-80
2023/12/28 00:28:25;;;;;;;8.80;7.43;;;4.40;77.00;;;;;;6288211;28;20237;-79
2023/12/28 00:31:28;;;;;;;8.73;7.93;;;4.40;77.00;;;;;;6282244;28;20234;-79
2023/12/28 00:34:31;;;;;;;7.97;7.23;;;4.50;76.80;;;;;;6287879;28;20249;-79
2023/12/28 00:37:35;;;;;;;7.47;6.80;;;4.50;76.50;;;;;;6281777;28;20229;-77
2023/12/28 00:40:38;;;;;;;8.53;7.73;;;4.50;76.30;;;;;;6283302;28;20233;-77
2023/12/28 00:43:42;;;;;;;9.67;8.03;;;4.50;76.40;;;;;;6288784;28;20541;-80
2023/12/28 00:46:45;;;;;;;8.53;7.67;;;4.50;76.30;;;;;;6288029;28;20324;-80
2023/12/28 00:49:49;;;;;;;9.17;8.20;;;4.60;76.20;;;;;;6265354;28;20392;-79
2023/12/28 00:52:52;;;;;;;9.70;8.80;;;4.50;76.20;;;;;;6298547;28;20245;-78
2023/12/28 00:55:55;;;;;;;11.17;9.07;;;4.60;76.20;;;;;;6281124;28;20246;-79
2023/12/28 00:59:01;;;;;;;9.73;8.10;;;4.50;76.20;;;;;;6280332;28;20237;-80
2023/12/28 01:02:05;;;;;;;8.83;8.03;;;4.50;76.10;;;;;;6292893;28;20236;-80
2023/12/28 01:05:08;;;;;;;9.37;8.47;;;4.50;76.20;;;;;;6270065;28;20312;-79
2023/12/28 01:08:11;;;;;;;7.80;7.17;;;4.50;76.30;;;;;;6273061;28;20317;-79
2023/12/28 01:11:14;;;;;;;8.03;7.40;;;4.50;76.60;;;;;;6269569;28;20290;-80
2023/12/28 01:14:19;;;;;;;7.33;6.73;;;4.40;76.70;;;;;;6279036;28;20236;-78
2023/12/28 01:17:22;;;;;;;8.00;6.80;;;4.40;76.60;;;;;;6280107;28;20241;-78
2023/12/28 01:20:25;;;;;;;8.83;7.37;;;4.40;76.70;;;;;;6275639;28;20246;-78
2023/12/28 01:23:28;;;;;;;9.30;6.60;;;4.50;76.60;;;;;;6282052;28;20731;-79
2023/12/28 01:26:31;;;;;;;7.40;6.37;;;4.50;76.40;;;;;;6284447;28;20244;-80
2023/12/28 01:29:36;;;;;;;7.00;6.17;;;4.50;76.20;;;;;;6275751;28;20320;-80
2023/12/28 01:32:39;;;;;;;6.30;5.67;;;4.50;76.40;;;;;;6280135;28;20287;-79
2023/12/28 01:35:42;;;;;;;7.00;6.60;;;4.50;76.20;;;;;;6273944;28;20291;-80
2023/12/28 01:38:45;;;;;;;6.43;6.10;;;4.50;76.10;;;;;;6274643;28;20313;-78
2023/12/28 01:41:48;;;;;;;7.10;6.60;;;4.50;75.90;;;;;;6288577;28;20298;-80
2023/12/28 01:44:53;;;;;;;6.90;6.47;;;4.60;75.80;;;;;;6280556;28;20295;-79
2023/12/28 01:48:01;;;;;;;7.00;6.43;;;4.60;75.70;;;;;;6276005;28;20229;-79
2023/12/28 01:51:05;;;;;;;5.70;5.40;;;4.50;75.80;;;;;;6280342;28;20271;-79
2023/12/28 01:54:08;;;;;;;6.97;6.30;;;4.50;75.70;;;;;;6279389;28;20237;-79
2023/12/28 01:57:13;;;;;;;6.17;5.70;;;4.60;75.40;;;;;;6276090;28;20243;-80
2023/12/28 02:00:17;;;;;;;5.73;5.23;;;4.70;75.40;;;;;;6286371;28;20233;-78
2023/12/28 02:03:21;;;;;;;6.10;5.63;;;4.60;75.30;;;;;;6281677;28;20251;-79
2023/12/28 02:06:25;;;;;;;5.93;5.53;;;4.60;75.40;;;;;;6271691;28;20244;-76
2023/12/28 02:09:28;;;;;;;6.10;5.70;;;4.60;75.30;;;;;;6287987;28;20255;-78
2023/12/28 02:12:31;;;;;;;5.50;5.20;;;4.70;75.30;;;;;;6280073;28;20238;-81
2023/12/28 02:15:37;;;;;;;6.90;5.67;;;4.70;75.00;;;;;;6283985;28;20751;-79
2023/12/28 02:18:44;;;;;;;6.10;4.97;;;4.80;74.40;;;;;;6281572;28;20762;-77
2023/12/28 02:21:48;;;;;;;4.93;4.73;;;4.90;74.30;;;;;;6279224;28;20229;-80
2023/12/28 02:25:00;;;;;;;5.20;4.77;;;4.90;73.80;;;;;;6286668;28;20735;-78
2023/12/28 02:28:04;;;;;;;4.83;4.63;;;4.90;73.70;;;;;;6293360;28;20880;-79
2023/12/28 02:31:08;;;;;;;4.77;4.47;;;5.10;72.50;;;;;;6270099;28;20254;-79
2023/12/28 02:34:24;;;;;;;4.57;4.37;;;5.30;71.90;;;;;;6277951;28;20313;-77
2023/12/28 02:37:29;;;;;;;4.83;4.60;;;5.30;71.80;;;;;;6262985;28;20234;-81
2023/12/28 02:40:37;;;;;;;4.77;4.50;;;5.50;70.90;;;;;;6272584;28;20618;-77
2023/12/28 02:43:40;;;;;;;4.37;4.17;;;5.50;70.70;;;;;;6286176;28;20237;-78
2023/12/28 02:46:43;;;;;;;3.93;3.83;;;5.50;70.60;;;;;;6282187;28;20236;-79
2023/12/28 02:49:46;;;;;;;4.40;4.20;;;5.70;69.60;;;;;;6275920;28;20325;-79
2023/12/28 02:52:49;;;;;;;4.10;4.00;;;5.80;69.00;;;;;;6274761;28;20237;-81
2023/12/28 02:55:54;;;;;;;4.17;4.03;;;6.00;67.90;;;;;;6283127;28;20813;-78
2023/12/28 02:58:57;;;;;;;4.03;3.90;;;6.10;67.40;;;;;;6282464;28;20229;-79
2023/12/28 03:02:00;;;;;;;4.30;4.20;;;6.30;66.60;;;;;;6277742;28;20694;-79
2023/12/28 03:05:03;;;;;;;3.83;3.73;;;6.40;66.30;;;;;;6282980;28;20318;-79
2023/12/28 03:08:06;;;;;;;4.13;4.03;;;6.50;65.50;;;;;;6274963;28;20229;-78
2023/12/28 03:11:11;;;;;;;4.13;4.00;;;6.70;65.00;;;;;;6272389;28;20301;-79
2023/12/28 03:14:14;;;;;;;4.10;4.00;;;6.80;64.80;;;;;;6274291;28;20307;-79
2023/12/28 03:17:17;;;;;;;3.83;3.80;;;6.80;64.20;;;;;;6267131;28;20367;-81
2023/12/28 03:20:21;;;;;;;4.30;4.10;;;7.00;63.40;;;;;;6270209;28;20234;-80
2023/12/28 03:23:27;;;;;;;3.73;3.63;;;7.00;63.80;;;;;;6272015;28;20725;-77
2023/12/28 03:26:31;;;;;;;3.70;3.60;;;7.00;63.30;;;;;;6278804;28;20241;-79
2023/12/28 03:29:34;;;;;;;4.10;3.83;;;7.00;63.30;;;;;;6286255;28;20925;-77
2023/12/28 03:32:37;;;;;;;3.60;3.50;;;7.20;63.00;;;;;;6283146;28;20264;-80
2023/12/28 03:35:40;;;;;;;3.80;3.60;;;7.30;62.20;;;;;;6277282;28;20617;-79
2023/12/28 03:38:43;;;;;;;3.90;3.70;;;7.40;61.90;;;;;;6264477;28;20234;-81
2023/12/28 03:41:48;;;;;;;3.90;3.80;;;7.40;62.10;;;;;;6291288;28;20286;-78
2023/12/28 03:44:51;;;;;;;4.07;3.60;;;7.50;61.90;;;;;;6286906;28;20265;-80
2023/12/28 03:47:54;;;;;;;3.67;3.60;;;7.50;62.20;;;;;;6285748;28;20320;-79
2023/12/28 03:50:58;;;;;;;4.17;3.83;;;7.50;62.30;;;;;;6278266;28;20241;-79
2023/12/28 03:54:01;;;;;;;3.90;3.70;;;7.50;63.20;;;;;;6281005;28;20348;-80
2023/12/28 03:57:06;;;;;;;3.80;3.57;;;7.50;63.70;;;;;;6283788;28;20319;-79
2023/12/28 04:00:10;;;;;;;3.60;3.60;;;7.50;64.10;;;;;;6283668;28;20823;-79
2023/12/28 04:03:13;;;;;;;4.80;4.47;;;7.50;64.50;;;;;;6282694;28;20232;-77
2023/12/28 04:06:16;;;;;;;3.87;3.60;;;7.40;64.60;;;;;;6282419;28;20229;-78
2023/12/28 04:09:20;;;;;;;3.80;3.70;;;7.40;64.90;;;;;;6290108;28;20257;-79
2023/12/28 04:12:24;;;;;;;3.80;3.60;;;7.50;64.40;;;;;;6291451;28;21120;-78
2023/12/28 04:15:28;;;;;;;3.90;3.80;;;7.40;65.00;;;;;;6293585;28;20298;-77
2023/12/28 04:18:31;;;;;;;4.40;4.30;;;7.50;64.70;;;;;;6278694;28;20241;-78
2023/12/28 04:21:34;;;;;;;3.83;3.63;;;7.30;65.50;;;;;;6287911;28;20248;-80
2023/12/28 04:24:38;;;;;;;3.77;3.67;;;7.30;65.60;;;;;;6290035;28;20244;-81
2023/12/28 04:27:42;;;;;;;3.73;3.63;;;7.20;65.60;;;;;;6280833;28;20236;-78
2023/12/28 04:30:45;;;;;;;3.80;3.60;;;7.30;65.30;;;;;;6284486;28;20271;-78
2023/12/28 04:33:49;;;;;;;3.50;3.40;;;7.50;64.70;;;;;;6276693;28;20286;-81
2023/12/28 04:36:54;;;;;;;3.60;3.50;;;7.50;64.80;;;;;;6289634;28;20298;-81
2023/12/28 04:39:58;;;;;;;3.70;3.60;;;7.50;64.30;;;;;;6288496;28;20365;-79
2023/12/28 04:43:03;;;;;;;3.70;3.60;;;7.60;63.70;;;;;;6281539;28;20234;-80
2023/12/28 04:46:06;;;;;;;4.13;3.80;;;7.50;64.10;;;;;;6285617;28;20386;-79
2023/12/28 04:49:11;;;;;;;3.60;3.50;;;7.60;63.70;;;;;;6282582;28;20287;-80
2023/12/28 04:52:14;;;;;;;4.13;3.93;;;7.60;63.80;;;;;;6287632;28;20234;-79
2023/12/28 04:55:17;;;;;;;3.50;3.40;;;7.60;63.70;;;;;;6288082;28;20236;-77
2023/12/28 04:58:21;;;;;;;3.93;3.73;;;7.60;63.40;;;;;;6286218;28;20245;-81
2023/12/28 05:01:24;;;;;;;4.13;3.93;;;7.70;63.00;;;;;;6277848;28;20336;-80
2023/12/28 05:04:28;;;;;;;4.00;3.80;;;7.80;63.00;;;;;;6288095;28;20245;-79
2023/12/28 05:07:32;;;;;;;3.37;3.30;;;7.80;63.40;;;;;;6281179;28;20256;-77
2023/12/28 05:10:35;;;;;;;4.00;3.23;;;7.80;63.20;;;;;;6281263;28;20335;-79
2023/12/28 05:13:40;;;;;;;3.17;3.13;;;7.80;63.00;;;;;;6291257;28;20319;-81
2023/12/28 05:16:43;;;;;;;3.50;3.40;;;7.80;62.90;;;;;;6286239;28;20245;-78
2023/12/28 05:19:47;;;;;;;3.33;3.30;;;7.60;63.40;;;;;;6285326;28;20292;-78
2023/12/28 05:22:50;;;;;;;3.67;3.60;;;7.80;63.00;;;;;;6286981;28;20233;-78
2023/12/28 05:25:53;;;;;;;3.27;3.20;;;7.80;62.80;;;;;;6288685;28;20260;-80
2023/12/28 05:28:57;;;;;;;3.43;3.33;;;7.80;62.60;;;;;;6279564;28;20728;-80
2023/12/28 05:32:00;;;;;;;3.80;3.50;;;7.80;62.60;;;;;;6274241;28;20230;-80
2023/12/28 05:35:04;;;;;;;3.40;3.30;;;7.80;63.20;;;;;;6283056;28;20801;-80
2023/12/28 05:38:08;;;;;;;3.87;3.67;;;7.80;63.00;;;;;;6279065;28;20260;-80
2023/12/28 05:41:11;;;;;;;3.77;3.53;;;7.80;63.00;;;;;;6274458;28;20222;-81
2023/12/28 05:44:16;;;;;;;3.43;3.30;;;7.80;62.90;;;;;;6288065;28;20245;-77
2023/12/28 05:47:19;;;;;;;3.50;3.30;;;7.80;63.50;;;;;;6279319;28;20238;-79
2023/12/28 05:50:22;;;;;;;3.77;3.67;;;7.80;63.30;;;;;;6277930;28;20246;-81
2023/12/28 05:53:26;;;;;;;3.50;3.40;;;7.80;63.80;;;;;;6282879;28;20306;-77
2023/12/28 05:56:29;;;;;;;3.70;3.47;;;7.80;64.20;;;;;;6282942;28;20741;-79
2023/12/28 05:59:38;;;;;;;3.20;3.20;;;7.90;64.30;;;;;;6285158;28;20236;-79
2023/12/28 06:02:41;;;;;;;4.20;4.00;;;8.00;64.20;;;;;;6270373;28;20315;-79
2023/12/28 06:05:44;;;;;;;3.60;3.40;;;8.00;64.60;;;;;;6285124;28;20256;-79
2023/12/28 06:08:47;;;;;;;3.73;3.53;;;8.10;64.90;;;;;;6286915;28;20299;-80
2023/12/28 06:11:50;;;;;;;3.73;3.53;;;8.20;65.40;;;;;;6284182;28;20581;-79
2023/12/28 06:14:54;;;;;;;3.70;3.60;;;8.20;65.40;;;;;;6286804;28;20244;-80
2023/12/28 06:17:57;;;;;;;3.93;3.73;;;8.30;65.50;;;;;;6278537;28;20228;-79
2023/12/28 06:21:02;;;;;;;3.47;3.43;;;8.30;65.50;;;;;;6281749;28;20225;-81
2023/12/28 06:24:06;;;;;;;3.70;3.60;;;8.30;65.80;;;;;;6280367;28;20278;-79
2023/12/28 06:27:09;;;;;;;3.97;3.70;;;8.40;66.00;;;;;;6279844;28;20369;-78
2023/12/28 06:30:14;;;;;;;3.83;3.63;;;8.30;66.20;;;;;;6284699;28;20276;-79
2023/12/28 06:33:17;;;;;;;4.37;4.17;;;8.30;66.10;;;;;;6278864;28;20234;-80
2023/12/28 06:36:21;;;;;;;3.83;3.73;;;8.30;66.40;;;;;;6287011;28;20827;-81
2023/12/28 06:39:24;;;;;;;3.70;3.60;;;8.20;66.60;;;;;;6273626;28;20230;-81
2023/12/28 06:42:27;;;;;;;4.00;3.90;;;8.30;66.70;;;;;;6277270;28;20275;-81
2023/12/28 06:45:31;;;;;;;3.33;3.33;;;8.30;66.60;;;;;;6283245;28;20537;-81
2023/12/28 06:48:34;;;;;;;3.47;3.33;;;8.40;66.60;;;;;;6285175;28;20244;-81
2023/12/28 06:51:42;;;;;;;3.47;3.37;;;8.40;66.60;;;;;;6289970;28;20237;-79
2023/12/28 06:54:46;;;;;;;4.33;3.90;;;8.40;66.70;;;;;;6268000;28;20630;-80
2023/12/28 06:57:49;;;;;;;3.73;3.43;;;8.40;66.60;;;;;;6285222;28;20304;-79
2023/12/28 07:00:57;;;;;;;3.43;3.43;;;8.40;66.70;;;;;;6276481;28;20240;-81
2023/12/28 07:04:00;;;;;;;3.87;3.50;;;8.50;66.70;;;;;;6265344;28;20230;-80
2023/12/28 07:07:04;;;;;;;3.63;3.63;;;8.50;67.00;;;;;;6281422;28;20237;-79
2023/12/28 07:10:08;;;;;;;3.60;3.50;;;8.40;67.20;;;;;;6267180;28;20233;-81
2023/12/28 07:13:11;;;;;;;3.70;3.60;;;8.40;67.50;;;;;;6283279;28;20229;-80
2023/12/28 07:16:16;;;;;;;4.37;4.07;;;8.40;67.60;;;;;;6282869;28;20333;-80
2023/12/28 07:19:19;;;;;;;4.03;3.83;;;8.30;67.90;;;;;;6279309;28;20229;-79
2023/12/28 07:22:22;;;;;;;3.60;3.37;;;8.40;67.70;;;;;;6282286;28;20295;-79
2023/12/28 07:25:25;;;;;;;4.30;3.73;;;8.40;67.80;;;;;;6275234;28;20319;-78
2023/12/28 07:28:28;;;;;;;3.70;3.50;;;8.50;67.80;;;;;;6280992;28;20236;-80
2023/12/28 07:31:32;;;;;;;3.27;3.17;;;8.40;68.30;;;;;;6272692;28;20237;-81
2023/12/28 07:34:36;;;;;;;3.50;3.40;;;8.40;68.40;;;;;;6275469;28;20244;-78
2023/12/28 07:37:39;;;;;;;3.60;3.50;;;8.40;68.20;;;;;;6272259;28;20283;-81
2023/12/28 07:40:42;;;;;;;3.23;3.13;;;8.40;68.40;;;;;;6278421;28;20316;-80
2023/12/28 07:43:45;;;;;;;3.80;3.70;;;8.40;68.40;;;;;;6289795;28;20237;-82
2023/12/28 07:46:49;;;;;;;3.60;3.50;;;8.40;68.50;;;;;;6271997;28;20265;-80
2023/12/28 07:49:52;;;;;;;3.63;3.53;;;8.40;68.40;;;;;;6277271;28;20261;-81
2023/12/28 07:52:57;;;;;;;3.70;3.60;;;8.50;68.40;;;;;;6269648;28;20248;-81
2023/12/28 07:56:01;;;;;;;3.73;3.53;;;8.50;68.20;;;;;;6279576;28;20324;-81
2023/12/28 07:59:09;;;;;;;3.57;3.40;;;8.50;68.30;;;;;;6269531;28;20371;-81
2023/12/28 08:02:13;;;;;;;3.33;3.23;;;8.50;68.50;;;;;;6279369;28;20240;-79
2023/12/28 08:05:16;;;;;;;3.50;3.47;;;8.50;68.40;;;;;;6259810;28;20374;-81
2023/12/28 08:08:19;;;;;;;3.60;3.50;;;8.60;68.30;;;;;;6275597;28;20249;-80
2023/12/28 08:11:22;;;;;;;4.07;3.77;;;8.50;68.60;;;;;;6272045;28;20294;-81
2023/12/28 08:14:25;;;;;;;3.70;3.60;;;8.60;68.30;;;;;;6277852;28;20244;-80
2023/12/28 08:17:30;;;;;;;3.93;3.73;;;8.60;68.30;;;;;;6273507;28;20244;-79
2023/12/28 08:20:33;;;;;;;4.17;3.87;;;8.60;68.30;;;;;;6277204;28;20847;-79
2023/12/28 08:23:36;;;;;;;3.80;3.70;;;8.60;68.40;;;;;;6278942;28;20242;-82
2023/12/28 08:26:39;;;;;;;3.90;3.70;;;8.70;68.30;;;;;;6278926;28;20257;-78
2023/12/28 08:29:42;;;;;;;3.47;3.33;;;8.70;68.10;;;;;;6276466;28;20240;-79
2023/12/28 08:32:47;;;;;;;3.97;3.80;;;8.70;68.00;;;;;;6280800;28;20366;-80
2023/12/28 08:35:51;;;;;;;3.93;3.83;;;8.70;68.00;;;;;;6282257;28;20941;-80
2023/12/28 08:38:54;;;;;;;3.57;3.47;;;8.60;68.20;;;;;;6271377;28;20318;-79
2023/12/28 08:41:57;;;;;;;4.60;4.30;;;8.60;67.90;;;;;;6288738;28;20233;-80
2023/12/28 08:44:59;;;;;;;4.10;3.80;;;8.80;67.50;;;;;;6283335;28;20238;-80
2023/12/28 08:48:05;;;;;;;3.93;3.73;;;8.90;67.30;;;;;;6267229;28;20283;-80
2023/12/28 08:51:10;;;;;;;4.00;3.90;;;8.90;67.40;;;;;;6282954;28;20316;-80
2023/12/28 08:54:13;;;;;;;3.87;3.70;;;8.80;67.60;;;;;;6287072;28;20230;-81
2023/12/28 08:57:16;;;;;;;3.80;3.70;;;8.80;67.70;;;;;;6279562;28;20932;-81
2023/12/28 09:00:30;;;;;;;3.93;3.83;;;8.80;67.60;;;;;;6282267;28;20242;-80
2023/12/28 09:03:36;;;;;;;3.60;3.50;;;8.70;67.90;;;;;;6277044;28;20252;-78
2023/12/28 09:06:39;;;;;;;4.10;3.80;;;8.70;67.90;;;;;;6283509;28;20241;-80
2023/12/28 09:09:42;;;;;;;3.57;3.47;;;8.60;68.00;;;;;;6288278;28;20327;-82
2023/12/28 09:12:45;;;;;;;4.30;4.00;;;8.60;67.70;;;;;;6283151;28;20244;-81
2023/12/28 09:15:50;;;;;;;3.90;3.80;;;8.60;67.90;;;;;;6290003;28;20379;-80
2023/12/28 09:18:55;;;;;;;4.10;4.00;;;8.60;67.80;;;;;;6281867;28;20290;-79
2023/12/28 09:21:58;;;;;;;4.03;3.83;;;8.60;67.70;;;;;;6277501;28;20238;-79
2023/12/28 09:25:01;;;;;;;4.07;3.97;;;8.60;67.60;;;;;;6288667;28;20237;-80
2023/12/28 09:28:05;;;;;;;4.60;4.20;;;8.60;67.70;;;;;;6277133;28;20901;-80
2023/12/28 09:31:08;;;;;;;4.33;4.03;;;8.70;67.40;;;;;;6281279;28;20237;-78
2023/12/28 09:34:13;;;;;;;4.20;4.10;;;8.60;67.50;;;;;;6283911;28;20241;-78
2023/12/28 09:37:16;;;;;;;4.63;4.33;;;8.60;67.60;;;;;;6274156;28;20260;-81
2023/12/28 09:40:19;;;;;;;4.40;4.20;;;8.60;67.70;;;;;;6284004;28;20595;-79
2023/12/28 09:43:25;;;;;;;4.90;4.60;;;8.60;67.70;;;;;;6286713;28;20267;-81
2023/12/28 09:46:28;;;;;;;4.37;4.27;;;8.50;67.80;;;;;;6287929;28;20238;-77
2023/12/28 09:49:33;;;;;;;4.87;4.43;;;8.50;67.90;;;;;;6271318;28;20322;-82
2023/12/28 09:52:36;;;;;;;5.03;4.60;;;8.50;68.00;;;;;;6286376;28;20743;-80
2023/12/28 09:55:39;;;;;;;4.70;4.40;;;8.40;68.20;;;;;;6280196;28;20304;-79
2023/12/28 09:58:44;;;;;;;5.47;4.93;;;8.40;68.20;;;;;;6282020;28;20228;-81
2023/12/28 10:01:48;;;;;;;4.57;4.37;;;8.40;68.40;;;;;;6281803;28;20241;-78
2023/12/28 10:04:53;;;;;;;4.73;4.43;;;8.40;68.40;;;;;;6272432;28;20238;-77
2023/12/28 10:07:57;;;;;;;4.67;4.43;;;8.40;68.40;;;;;;6277074;28;20234;-80
2023/12/28 10:11:00;;;;;;;4.37;4.27;;;8.30;68.70;;;;;;6280943;28;20257;-80
2023/12/28 10:14:06;;;;;;;4.97;4.77;;;8.40;68.70;;;;;;6283814;28;20732;-80
2023/12/28 10:17:10;;;;;;;4.60;4.30;;;8.40;68.90;;;;;;6272403;28;20307;-81
2023/12/28 10:20:15;;;;;;;4.83;4.60;;;8.40;69.00;;;;;;6259617;28;20884;-81
2023/12/28 10:23:18;;;;;;;4.37;4.10;;;8.50;68.50;;;;;;6286346;28;20613;-80
2023/12/28 10:26:22;;;;;;;4.63;4.43;;;8.60;68.50;;;;;;6282830;28;20233;-81
2023/12/28 10:29:26;;;;;;;4.30;4.07;;;8.60;68.40;;;;;;6280089;28;20230;-80
2023/12/28 10:32:30;;;;;;;4.83;4.50;;;8.70;68.30;;;;;;6280859;28;20243;-80
2023/12/28 10:35:35;;;;;;;4.60;4.40;;;8.80;68.30;;;;;;6282909;28;20233;-81
2023/12/28 10:38:39;;;;;;;5.07;4.87;;;8.90;68.20;;;;;;6282522;28;20236;-80
2023/12/28 10:41:44;;;;;;;4.47;4.27;;;9.00;67.80;;;;;;6278832;28;20233;-80
2023/12/28 10:44:52;;;;;;;5.60;5.10;;;9.20;67.40;;;;;;6279143;28;20282;-77
2023/12/28 10:48:04;;;;;;;4.70;4.50;;;9.20;67.20;;;;;;6283627;28;20743;-79
2023/12/28 10:51:13;;;;;;;4.67;4.47;;;9.20;67.10;;;;;;6279920;28;20237;-79
2023/12/28 10:54:32;;;;;;;4.80;4.50;;;9.40;66.80;;;;;;6283347;28;20288;-81
2023/12/28 10:57:45;;;;;;;4.70;4.47;;;9.50;66.50;;;;;;6277171;28;20234;-81
2023/12/28 11:00:54;;;;;;;4.37;4.27;;;9.50;66.40;;;;;;6283278;28;20364;-78
2023/12/28 11:04:04;;;;;;;4.50;4.30;;;9.50;66.60;;;;;;6278698;28;20323;-79
2023/12/28 11:07:11;;;;;;;4.27;4.00;;;9.50;66.70;;;;;;6284391;28;20241;-80
2023/12/28 11:10:15;;;;;;;4.83;4.57;;;9.70;65.90;;;;;;6283342;28;20233;-79
2023/12/28 11:13:21;;;;;;;4.33;4.10;;;9.70;66.10;;;;;;6284752;28;20257;-79
2023/12/28 11:16:24;;;;;;;4.53;4.20;;;9.80;65.80;;;;;;6261103;28;20348;-79
2023/12/28 11:19:28;;;;;;;5.13;4.67;;;9.90;65.40;;;;;;6273505;28;20279;-81
2023/12/28 11:22:34;;;;;;;4.00;3.90;;;9.80;65.50;;;;;;6277475;28;20305;-80
2023/12/28 11:25:37;;;;;;;4.37;4.07;;;10.00;65.40;;;;;;6274459;28;20323;-81
2023/12/28 11:28:40;;;;;;;4.10;3.90;;;10.00;65.40;;;;;;6285144;28;20778;-80
2023/12/28 11:31:43;;;;;;;4.33;4.23;;;10.00;65.00;;;;;;6276538;28;20986;-80
2023/12/28 11:34:46;;;;;;;4.30;4.00;;;9.90;65.50;;;;;;6271851;28;20830;-80
2023/12/28 11:37:54;;;;;;;4.57;4.17;;;10.00;65.00;;;;;;6276192;28;20240;-81
2023/12/28 11:40:57;;;;;;;4.00;3.87;;;10.00;65.00;;;;;;6274819;28;20716;-79
2023/12/28 11:44:04;;;;;;;3.90;3.80;;;10.00;64.70;;;;;;6276034;28;20237;-80
2023/12/28 11:47:14;;;;;;;3.70;3.50;;;10.00;64.50;;;;;;6279154;28;20783;-80
2023/12/28 11:50:17;;;;;;;4.83;4.63;;;10.00;64.50;;;;;;6283370;28;20225;-80
2023/12/28 11:53:22;;;;;;;4.40;4.20;;;10.10;64.50;;;;;;6281574;28;20352;-80
2023/12/28 11:56:26;;;;;;;4.27;4.07;;;10.20;64.00;;;;;;6277272;28;20233;-81
2023/12/28 11:59:31;;;;;;;4.00;3.60;;;10.40;63.40;;;;;;6274721;28;20226;-80
2023/12/28 12:02:34;;;;;;;4.50;4.10;;;10.50;63.50;;;;;;6274241;28;20308;-81
2023/12/28 12:05:37;;;;;;;3.93;3.63;;;10.40;63.60;;;;;;6285533;28;20238;-81
2023/12/28 12:08:41;;;;;;;4.47;4.37;;;10.40;63.00;;;;;;6275677;28;20229;-83
2023/12/28 12:11:45;;;;;;;5.33;4.93;;;10.40;62.90;;;;;;6279027;28;20368;-80
2023/12/28 12:14:48;;;;;;;4.23;3.93;;;10.50;62.90;;;;;;6295149;28;20275;-81
2023/12/28 12:17:51;;;;;;;4.27;3.97;;;10.50;63.10;;;;;;6288593;28;20248;-81
2023/12/28 12:20:55;;;;;;;4.13;3.90;;;10.60;62.70;;;;;;6288934;28;20229;-80
2023/12/28 12:24:00;;;;;;;4.10;3.90;;;10.60;62.70;;;;;;6288878;28;20367;-80
2023/12/28 12:27:04;;;;;;;4.00;3.70;;;10.60;63.10;;;;;;6272866;28;21030;-77
2023/12/28 12:30:09;;;;;;;3.97;3.77;;;10.70;63.00;;;;;;6280616;28;20719;-81
2023/12/28 12:33:12;;;;;;;3.77;3.57;;;10.60;62.80;;;;;;6277078;28;20713;-81
2023/12/28 12:36:15;;;;;;;4.03;3.93;;;10.60;63.10;;;;;;6282026;28;20286;-81
2023/12/28 12:39:19;;;;;;;4.00;3.77;;;10.60;63.00;;;;;;6276352;28;20229;-81
2023/12/28 12:42:23;;;;;;;4.23;3.83;;;10.50;63.20;;;;;;6282098;28;20703;-81
2023/12/28 12:45:26;;;;;;;3.93;3.73;;;10.50;63.30;;;;;;6279201;28;20237;-80
2023/12/28 12:48:29;;;;;;;4.37;3.93;;;10.50;63.20;;;;;;6276041;28;20595;-81
2023/12/28 12:51:33;;;;;;;4.83;4.43;;;10.50;63.80;;;;;;6280386;28;20225;-81
2023/12/28 12:54:38;;;;;;;5.07;4.77;;;10.30;64.20;;;;;;6282240;28;20233;-79
2023/12/28 12:57:42;;;;;;;3.80;3.60;;;10.30;64.60;;;;;;6287600;28;20252;-78
2023/12/28 13:00:47;;;;;;;3.77;3.60;;;10.40;64.00;;;;;;6281056;28;20318;-80
2023/12/28 13:03:51;;;;;;;4.30;4.03;;;10.40;64.40;;;;;;6277090;28;20238;-81
2023/12/28 13:06:54;;;;;;;4.17;3.90;;;10.40;64.00;;;;;;6276895;28;20233;-80
2023/12/28 13:09:59;;;;;;;4.07;3.93;;;10.50;63.90;;;;;;6279618;28;20286;-80
2023/12/28 13:13:03;;;;;;;4.00;3.80;;;10.60;63.60;;;;;;6287146;28;20294;-82
2023/12/28 13:16:07;;;;;;;3.90;3.77;;;10.50;63.70;;;;;;6279577;28;20245;-80
2023/12/28 13:19:10;;;;;;;4.27;3.90;;;10.40;64.30;;;;;;6283503;28;20311;-80
2023/12/28 13:22:13;;;;;;;3.87;3.77;;;10.50;64.00;;;;;;6289125;28;20233;-78
2023/12/28 13:25:17;;;;;;;4.27;3.87;;;10.50;63.60;;;;;;6287578;28;20264;-75
2023/12/28 13:28:20;;;;;;;3.97;3.77;;;10.50;64.10;;;;;;6267183;28;20237;-81
2023/12/28 13:31:24;;;;;;;4.00;3.80;;;10.40;64.10;;;;;;6274495;28;20326;-78
2023/12/28 13:34:28;;;;;;;3.97;3.70;;;10.30;64.40;;;;;;6280538;28;20235;-81
2023/12/28 13:37:32;;;;;;;3.60;3.50;;;10.20;64.70;;;;;;6274706;28;20324;-82
2023/12/28 13:40:36;;;;;;;4.27;3.97;;;10.20;64.60;;;;;;6273048;28;20295;-81
2023/12/28 13:43:39;;;;;;;5.50;4.20;;;10.20;64.50;;;;;;6282865;28;20867;-81
2023/12/28 13:46:43;;;;;;;3.93;3.77;;;10.20;64.70;;;;;;6279489;28;20379;-81
2023/12/28 13:49:47;;;;;;;3.80;3.60;;;10.20;64.80;;;;;;6285958;28;20232;-80
2023/12/28 13:52:50;;;;;;;3.80;3.70;;;10.20;65.10;;;;;;6286812;28;20620;-81
2023/12/28 13:55:55;;;;;;;4.23;4.03;;;10.20;65.20;;;;;;6273070;28;20269;-80
2023/12/28 13:58:59;;;;;;;4.23;4.03;;;10.10;65.40;;;;;;6277445;28;20237;-80
2023/12/28 14:02:03;;;;;;;4.37;3.97;;;10.10;65.30;;;;;;6286231;28;20241;-79
2023/12/28 14:05:07;;;;;;;3.97;3.87;;;10.10;65.50;;;;;;6276655;28;20232;-83
2023/12/28 14:08:10;;;;;;;4.53;4.10;;;10.10;65.50;;;;;;6282343;28;20648;-79
2023/12/28 14:11:14;;;;;;;4.37;4.10;;;10.10;65.10;;;;;;6288016;28;20302;-80
2023/12/28 14:14:17;;;;;;;4.50;4.10;;;10.10;65.30;;;;;;6281268;28;20290;-80
2023/12/28 14:17:21;;;;;;;3.80;3.43;;;10.10;65.40;;;;;;6276348;28;20272;-80
2023/12/28 14:20:24;;;;;;;4.30;3.90;;;10.10;64.90;;;;;;6284790;28;20316;-82
2023/12/28 14:23:27;;;;;;;5.57;4.23;;;10.00;65.00;;;;;;6285428;28;20320;-80
2023/12/28 14:26:33;;;;;;;5.10;4.03;;;10.00;65.20;;;;;;6275558;28;20255;-80
2023/12/28 14:29:37;;;;;;;4.40;4.10;;;9.90;65.40;;;;;;6282446;28;20313;-78
2023/12/28 14:32:40;;;;;;;4.40;4.10;;;10.00;64.90;;;;;;6280608;28;20321;-81
2023/12/28 14:35:44;;;;;;;3.83;3.70;;;10.00;65.00;;;;;;6282939;28;20252;-82
2023/12/28 14:38:50;;;;;;;4.50;3.83;;;9.80;65.00;;;;;;6286909;28;20229;-79
2023/12/28 14:41:55;;;;;;;4.33;4.13;;;9.90;65.00;;;;;;6281848;28;20265;-80
2023/12/28 14:44:58;;;;;;;4.93;4.40;;;9.90;65.00;;;;;;6279564;28;20234;-78
2023/12/28 14:48:01;;;;;;;4.17;3.97;;;9.80;65.10;;;;;;6281554;28;20743;-81
2023/12/28 14:51:04;;;;;;;4.30;4.00;;;9.80;65.10;;;;;;6282537;28;20234;-82
2023/12/28 14:54:07;;;;;;;4.60;4.37;;;9.80;65.20;;;;;;6283661;28;20237;-77
2023/12/28 14:57:12;;;;;;;4.47;4.17;;;9.60;65.60;;;;;;6275500;28;20280;-77
2023/12/28 15:00:16;;;;;;;4.63;4.23;;;9.60;65.90;;;;;;6278243;28;20312;-76
2023/12/28 15:03:19;;;;;;;4.40;4.20;;;9.60;65.90;;;;;;6287210;28;20241;-76
2023/12/28 15:06:22;;;;;;;4.23;4.13;;;9.50;66.40;;;;;;6276722;28;20268;-78
2023/12/28 15:09:25;;;;;;;4.50;4.10;;;9.40;66.30;;;;;;6285107;28;20233;-79
2023/12/28 15:12:30;;;;;;;4.53;4.33;;;9.40;66.50;;;;;;6281866;28;20232;-79
2023/12/28 15:15:34;;;;;;;4.63;4.33;;;9.40;66.80;;;;;;6288220;28;20233;-77
2023/12/28 15:18:39;;;;;;;4.03;3.87;;;9.20;67.10;;;;;;6288405;28;20237;-80
2023/12/28 15:21:45;;;;;;;3.90;3.80;;;9.20;67.10;;;;;;6275088;28;20398;-79
2023/12/28 15:24:49;;;;;;;4.13;3.90;;;9.20;67.30;;;;;;6287753;28;20256;-79
2023/12/28 15:27:53;;;;;;;4.40;4.13;;;9.20;67.20;;;;;;6278727;28;20236;-78
2023/12/28 15:30:56;;;;;;;5.03;4.30;;;9.20;67.40;;;;;;6278251;28;20263;-78
2023/12/28 15:33:59;;;;;;;5.13;4.30;;;9.10;67.80;;;;;;6278161;28;20234;-79
2023/12/28 15:37:02;;;;;;;4.50;4.30;;;9.20;67.80;;;;;;6276975;28;20249;-78
2023/12/28 15:40:06;;;;;;;6.70;4.37;;;9.20;67.70;;;;;;6282508;28;20236;-80
2023/12/28 15:43:11;;;;;;;4.63;4.33;;;9.00;67.90;;;;;;6284904;28;20316;-79
2023/12/28 15:46:14;;;;;;;4.60;4.30;;;9.00;68.30;;;;;;6283237;28;20236;-81
2023/12/28 15:49:19;;;;;;;4.60;4.40;;;8.90;68.50;;;;;;6278568;28;20374;-77
2023/12/28 15:52:22;;;;;;;5.13;4.80;;;8.90;68.60;;;;;;6285883;28;20237;-79
2023/12/28 15:55:25;;;;;;;4.57;4.27;;;8.90;68.70;;;;;;6290375;28;20337;-81
2023/12/28 15:58:30;;;;;;;4.67;4.40;;;8.90;68.60;;;;;;6277692;28;20276;-80
2023/12/28 16:01:33;;;;;;;4.73;4.33;;;8.90;68.60;;;;;;6279330;28;20238;-79
2023/12/28 16:04:36;;;;;;;5.00;4.60;;;8.90;68.60;;;;;;6282754;28;20265;-78
2023/12/28 16:07:39;;;;;;;4.30;4.10;;;8.90;68.60;;;;;;6286436;28;21264;-79